sensor_id;sensor_type;location;lat;lon;timestamp;P1;durP1;ratioP1;P2;durP2;ratioP2
21890;SDS011;11110;52.386;16.940;2024-01-16T00:01:30;20.67;;;5.43;;
21890;SDS011;11110;52.386;16.940;2024-01-16T00:03:58;21.20;;;4.87;;
21890;SDS011;11110;52.386;16.940;2024-01-16T00:06:28;32.30;;;6.27;;
21890;SDS011;11110;52.386;16.940;2024-01-16T00:08:56;20.27;;;4.50;;
21890;SDS011;11110;52.386;16.940;2024-01-16T00:11:25;25.47;;;5.43;;
21890;SDS011;11110;52.386;16.940;2024-01-16T00:13:53;27.50;;;5.77;;
21890;SDS011;11110;52.386;16.940;2024-01-16T00:16:22;25.07;;;5.30;;
21890;SDS011;11110;52.386;16.940;2024-01-16T00:18:50;22.60;;;4.83;;
21890;SDS011;11110;52.386;16.940;2024-01-16T00:21:19;29.23;;;6.03;;
21890;SDS011;11110;52.386;16.940;2024-01-16T00:23:49;27.30;;;5.87;;
21890;SDS011;11110;52.386;16.940;2024-01-16T00:26:20;25.00;;;5.20;;
21890;SDS011;11110;52.386;16.940;2024-01-16T00:28:49;24.87;;;4.80;;
21890;SDS011;11110;52.386;16.940;2024-01-16T00:31:18;22.77;;;4.23;;
21890;SDS011;11110;52.386;16.940;2024-01-16T00:33:47;26.40;;;6.00;;
21890;SDS011;11110;52.386;16.940;2024-01-16T00:36:16;20.93;;;4.77;;
21890;SDS011;11110;52.386;16.940;2024-01-16T00:38:44;20.83;;;4.63;;
21890;SDS011;11110;52.386;16.940;2024-01-16T00:41:14;21.57;;;4.67;;
21890;SDS011;11110;52.386;16.940;2024-01-16T00:43:43;26.07;;;5.13;;
21890;SDS011;11110;52.386;16.940;2024-01-16T00:46:12;22.83;;;4.37;;
21890;SDS011;11110;52.386;16.940;2024-01-16T00:48:40;25.53;;;4.90;;
21890;SDS011;11110;52.386;16.940;2024-01-16T00:51:09;22.27;;;5.23;;
21890;SDS011;11110;52.386;16.940;2024-01-16T00:53:39;20.00;;;4.33;;
21890;SDS011;11110;52.386;16.940;2024-01-16T00:56:09;29.87;;;5.40;;
21890;SDS011;11110;52.386;16.940;2024-01-16T00:58:40;28.07;;;5.53;;
21890;SDS011;11110;52.386;16.940;2024-01-16T01:01:09;21.13;;;4.80;;
21890;SDS011;11110;52.386;16.940;2024-01-16T01:03:37;18.37;;;3.93;;
21890;SDS011;11110;52.386;16.940;2024-01-16T01:06:06;29.87;;;5.80;;
21890;SDS011;11110;52.386;16.940;2024-01-16T01:08:35;22.23;;;4.47;;
21890;SDS011;11110;52.386;16.940;2024-01-16T01:11:04;27.37;;;5.60;;
21890;SDS011;11110;52.386;16.940;2024-01-16T01:13:32;20.27;;;4.17;;
21890;SDS011;11110;52.386;16.940;2024-01-16T01:16:02;22.30;;;4.90;;
21890;SDS011;11110;52.386;16.940;2024-01-16T01:18:31;19.10;;;4.00;;
21890;SDS011;11110;52.386;16.940;2024-01-16T01:20:59;29.30;;;5.83;;
21890;SDS011;11110;52.386;16.940;2024-01-16T01:23:28;22.87;;;4.73;;
21890;SDS011;11110;52.386;16.940;2024-01-16T01:25:56;25.17;;;5.07;;
21890;SDS011;11110;52.386;16.940;2024-01-16T01:28:25;27.50;;;5.27;;
21890;SDS011;11110;52.386;16.940;2024-01-16T01:30:53;29.60;;;5.80;;
21890;SDS011;11110;52.386;16.940;2024-01-16T01:33:23;19.50;;;4.30;;
21890;SDS011;11110;52.386;16.940;2024-01-16T01:35:52;27.90;;;5.07;;
21890;SDS011;11110;52.386;16.940;2024-01-16T01:38:20;25.83;;;5.10;;
21890;SDS011;11110;52.386;16.940;2024-01-16T01:40:49;25.80;;;4.87;;
21890;SDS011;11110;52.386;16.940;2024-01-16T01:43:18;24.23;;;4.93;;
21890;SDS011;11110;52.386;16.940;2024-01-16T01:45:52;21.60;;;4.57;;
21890;SDS011;11110;52.386;16.940;2024-01-16T01:48:29;25.87;;;5.13;;
21890;SDS011;11110;52.386;16.940;2024-01-16T01:50:59;23.50;;;5.00;;
21890;SDS011;11110;52.386;16.940;2024-01-16T01:53:28;21.40;;;4.87;;
21890;SDS011;11110;52.386;16.940;2024-01-16T01:55:59;29.53;;;5.73;;
21890;SDS011;11110;52.386;16.940;2024-01-16T01:58:29;21.83;;;4.77;;
21890;SDS011;11110;52.386;16.940;2024-01-16T02:00:58;30.00;;;5.77;;
21890;SDS011;11110;52.386;16.940;2024-01-16T02:03:29;24.03;;;4.97;;
21890;SDS011;11110;52.386;16.940;2024-01-16T02:06:00;20.27;;;4.97;;
21890;SDS011;11110;52.386;16.940;2024-01-16T02:08:29;23.10;;;5.37;;
21890;SDS011;11110;52.386;16.940;2024-01-16T02:10:57;26.20;;;5.73;;
21890;SDS011;11110;52.386;16.940;2024-01-16T02:13:27;22.30;;;5.23;;
21890;SDS011;11110;52.386;16.940;2024-01-16T02:15:56;21.70;;;5.43;;
21890;SDS011;11110;52.386;16.940;2024-01-16T02:18:25;22.03;;;5.10;;
21890;SDS011;11110;52.386;16.940;2024-01-16T02:20:55;22.63;;;5.17;;
21890;SDS011;11110;52.386;16.940;2024-01-16T02:23:28;27.10;;;5.37;;
21890;SDS011;11110;52.386;16.940;2024-01-16T02:25:59;27.80;;;5.60;;
21890;SDS011;11110;52.386;16.940;2024-01-16T02:28:28;26.03;;;5.83;;
21890;SDS011;11110;52.386;16.940;2024-01-16T02:30:57;25.57;;;5.43;;
21890;SDS011;11110;52.386;16.940;2024-01-16T02:33:25;28.23;;;5.77;;
21890;SDS011;11110;52.386;16.940;2024-01-16T02:35:54;31.60;;;6.17;;
21890;SDS011;11110;52.386;16.940;2024-01-16T02:38:22;25.63;;;5.40;;
21890;SDS011;11110;52.386;16.940;2024-01-16T02:40:53;22.77;;;5.23;;
21890;SDS011;11110;52.386;16.940;2024-01-16T02:43:21;28.00;;;5.73;;
21890;SDS011;11110;52.386;16.940;2024-01-16T02:45:50;28.53;;;5.60;;
21890;SDS011;11110;52.386;16.940;2024-01-16T02:48:19;22.10;;;4.87;;
21890;SDS011;11110;52.386;16.940;2024-01-16T02:50:48;31.00;;;5.77;;
21890;SDS011;11110;52.386;16.940;2024-01-16T02:53:17;25.30;;;5.50;;
21890;SDS011;11110;52.386;16.940;2024-01-16T02:55:45;17.93;;;4.43;;
21890;SDS011;11110;52.386;16.940;2024-01-16T02:58:15;28.83;;;6.17;;
21890;SDS011;11110;52.386;16.940;2024-01-16T03:00:44;29.67;;;5.80;;
21890;SDS011;11110;52.386;16.940;2024-01-16T03:03:12;25.83;;;5.30;;
21890;SDS011;11110;52.386;16.940;2024-01-16T03:05:41;26.90;;;5.47;;
21890;SDS011;11110;52.386;16.940;2024-01-16T03:08:10;30.10;;;5.80;;
21890;SDS011;11110;52.386;16.940;2024-01-16T03:10:39;21.43;;;5.00;;
21890;SDS011;11110;52.386;16.940;2024-01-16T03:13:07;26.53;;;5.30;;
21890;SDS011;11110;52.386;16.940;2024-01-16T03:15:38;25.27;;;5.53;;
21890;SDS011;11110;52.386;16.940;2024-01-16T03:18:07;28.47;;;5.70;;
21890;SDS011;11110;52.386;16.940;2024-01-16T03:20:36;25.80;;;5.40;;
21890;SDS011;11110;52.386;16.940;2024-01-16T03:23:04;24.60;;;5.20;;
21890;SDS011;11110;52.386;16.940;2024-01-16T03:25:33;23.67;;;5.30;;
21890;SDS011;11110;52.386;16.940;2024-01-16T03:28:05;31.83;;;6.00;;
21890;SDS011;11110;52.386;16.940;2024-01-16T03:30:35;29.43;;;5.77;;
21890;SDS011;11110;52.386;16.940;2024-01-16T03:33:05;23.27;;;4.53;;
21890;SDS011;11110;52.386;16.940;2024-01-16T03:35:34;26.87;;;5.13;;
21890;SDS011;11110;52.386;16.940;2024-01-16T03:38:02;25.87;;;5.17;;
21890;SDS011;11110;52.386;16.940;2024-01-16T03:40:31;30.00;;;5.87;;
21890;SDS011;11110;52.386;16.940;2024-01-16T03:43:01;23.67;;;5.07;;
21890;SDS011;11110;52.386;16.940;2024-01-16T03:45:32;27.57;;;5.47;;
21890;SDS011;11110;52.386;16.940;2024-01-16T03:48:01;27.63;;;5.17;;
21890;SDS011;11110;52.386;16.940;2024-01-16T03:50:32;26.17;;;5.07;;
21890;SDS011;11110;52.386;16.940;2024-01-16T03:53:02;29.43;;;5.53;;
21890;SDS011;11110;52.386;16.940;2024-01-16T03:55:32;19.40;;;4.43;;
21890;SDS011;11110;52.386;16.940;2024-01-16T03:58:00;29.57;;;5.80;;
21890;SDS011;11110;52.386;16.940;2024-01-16T04:00:29;29.87;;;5.73;;
21890;SDS011;11110;52.386;16.940;2024-01-16T04:02:58;27.03;;;5.87;;
21890;SDS011;11110;52.386;16.940;2024-01-16T04:05:26;30.03;;;6.03;;
21890;SDS011;11110;52.386;16.940;2024-01-16T04:07:57;20.10;;;4.60;;
21890;SDS011;11110;52.386;16.940;2024-01-16T04:10:26;27.90;;;5.77;;
21890;SDS011;11110;52.386;16.940;2024-01-16T04:12:54;24.17;;;5.10;;
21890;SDS011;11110;52.386;16.940;2024-01-16T04:15:23;26.87;;;5.30;;
21890;SDS011;11110;52.386;16.940;2024-01-16T04:17:50;22.03;;;4.67;;
21890;SDS011;11110;52.386;16.940;2024-01-16T04:20:19;22.20;;;4.87;;
21890;SDS011;11110;52.386;16.940;2024-01-16T04:22:48;23.30;;;5.43;;
21890;SDS011;11110;52.386;16.940;2024-01-16T04:25:18;24.53;;;5.70;;
21890;SDS011;11110;52.386;16.940;2024-01-16T04:27:46;25.30;;;5.20;;
21890;SDS011;11110;52.386;16.940;2024-01-16T04:30:15;31.00;;;6.03;;
21890;SDS011;11110;52.386;16.940;2024-01-16T04:32:47;24.73;;;5.13;;
21890;SDS011;11110;52.386;16.940;2024-01-16T04:35:15;26.10;;;5.33;;
21890;SDS011;11110;52.386;16.940;2024-01-16T04:37:44;28.47;;;5.70;;
21890;SDS011;11110;52.386;16.940;2024-01-16T04:40:13;29.10;;;5.73;;
21890;SDS011;11110;52.386;16.940;2024-01-16T04:42:43;26.43;;;5.37;;
21890;SDS011;11110;52.386;16.940;2024-01-16T04:45:11;32.17;;;5.80;;
21890;SDS011;11110;52.386;16.940;2024-01-16T04:47:40;26.77;;;5.83;;
21890;SDS011;11110;52.386;16.940;2024-01-16T04:50:09;26.57;;;5.20;;
21890;SDS011;11110;52.386;16.940;2024-01-16T04:52:38;30.37;;;5.70;;
21890;SDS011;11110;52.386;16.940;2024-01-16T04:55:07;30.57;;;6.30;;
21890;SDS011;11110;52.386;16.940;2024-01-16T04:57:35;32.83;;;6.70;;
21890;SDS011;11110;52.386;16.940;2024-01-16T05:00:06;34.40;;;6.53;;
21890;SDS011;11110;52.386;16.940;2024-01-16T05:02:35;31.57;;;6.57;;
21890;SDS011;11110;52.386;16.940;2024-01-16T05:05:05;28.70;;;5.97;;
21890;SDS011;11110;52.386;16.940;2024-01-16T05:07:34;29.80;;;5.70;;
21890;SDS011;11110;52.386;16.940;2024-01-16T05:10:03;27.00;;;5.57;;
21890;SDS011;11110;52.386;16.940;2024-01-16T05:12:32;22.13;;;4.43;;
21890;SDS011;11110;52.386;16.940;2024-01-16T05:15:01;26.00;;;5.30;;
21890;SDS011;11110;52.386;16.940;2024-01-16T05:17:31;26.03;;;5.23;;
21890;SDS011;11110;52.386;16.940;2024-01-16T05:20:02;27.67;;;6.30;;
21890;SDS011;11110;52.386;16.940;2024-01-16T05:22:32;30.83;;;6.17;;
21890;SDS011;11110;52.386;16.940;2024-01-16T05:25:01;26.10;;;5.97;;
21890;SDS011;11110;52.386;16.940;2024-01-16T05:27:30;34.43;;;6.73;;
21890;SDS011;11110;52.386;16.940;2024-01-16T05:29:58;32.20;;;7.00;;
21890;SDS011;11110;52.386;16.940;2024-01-16T05:32:27;27.37;;;5.87;;
21890;SDS011;11110;52.386;16.940;2024-01-16T05:34:57;25.70;;;5.20;;
21890;SDS011;11110;52.386;16.940;2024-01-16T05:37:26;26.83;;;5.73;;
21890;SDS011;11110;52.386;16.940;2024-01-16T05:39:56;24.27;;;5.50;;
21890;SDS011;11110;52.386;16.940;2024-01-16T05:42:24;25.53;;;5.27;;
21890;SDS011;11110;52.386;16.940;2024-01-16T05:44:53;30.20;;;6.23;;
21890;SDS011;11110;52.386;16.940;2024-01-16T05:47:22;29.57;;;6.70;;
21890;SDS011;11110;52.386;16.940;2024-01-16T05:49:55;26.87;;;6.23;;
21890;SDS011;11110;52.386;16.940;2024-01-16T05:52:24;29.87;;;6.40;;
21890;SDS011;11110;52.386;16.940;2024-01-16T05:54:53;26.63;;;5.80;;
21890;SDS011;11110;52.386;16.940;2024-01-16T05:57:24;25.67;;;6.23;;
21890;SDS011;11110;52.386;16.940;2024-01-16T05:59:52;28.00;;;6.53;;
21890;SDS011;11110;52.386;16.940;2024-01-16T06:02:21;26.87;;;6.10;;
21890;SDS011;11110;52.386;16.940;2024-01-16T06:04:51;23.87;;;5.63;;
21890;SDS011;11110;52.386;16.940;2024-01-16T06:07:19;31.30;;;6.97;;
21890;SDS011;11110;52.386;16.940;2024-01-16T06:09:48;30.70;;;6.63;;
21890;SDS011;11110;52.386;16.940;2024-01-16T06:12:17;27.53;;;6.00;;
21890;SDS011;11110;52.386;16.940;2024-01-16T06:14:45;30.10;;;6.40;;
21890;SDS011;11110;52.386;16.940;2024-01-16T06:17:14;30.07;;;7.13;;
21890;SDS011;11110;52.386;16.940;2024-01-16T06:19:42;30.23;;;6.50;;
21890;SDS011;11110;52.386;16.940;2024-01-16T06:22:11;35.27;;;7.53;;
21890;SDS011;11110;52.386;16.940;2024-01-16T06:24:39;32.93;;;7.50;;
21890;SDS011;11110;52.386;16.940;2024-01-16T06:27:09;23.40;;;5.77;;
21890;SDS011;11110;52.386;16.940;2024-01-16T06:29:41;30.57;;;7.23;;
21890;SDS011;11110;52.386;16.940;2024-01-16T06:32:09;35.00;;;7.40;;
21890;SDS011;11110;52.386;16.940;2024-01-16T06:34:38;31.87;;;6.73;;
21890;SDS011;11110;52.386;16.940;2024-01-16T06:37:07;30.00;;;7.13;;
21890;SDS011;11110;52.386;16.940;2024-01-16T06:39:36;37.27;;;7.37;;
21890;SDS011;11110;52.386;16.940;2024-01-16T06:42:05;31.93;;;6.73;;
21890;SDS011;11110;52.386;16.940;2024-01-16T06:44:38;30.37;;;6.83;;
21890;SDS011;11110;52.386;16.940;2024-01-16T06:47:07;35.07;;;7.83;;
21890;SDS011;11110;52.386;16.940;2024-01-16T06:49:36;35.87;;;7.90;;
21890;SDS011;11110;52.386;16.940;2024-01-16T06:52:04;34.33;;;7.37;;
21890;SDS011;11110;52.386;16.940;2024-01-16T06:54:35;34.30;;;7.10;;
21890;SDS011;11110;52.386;16.940;2024-01-16T06:57:03;29.73;;;6.70;;
21890;SDS011;11110;52.386;16.940;2024-01-16T06:59:32;31.80;;;7.27;;
21890;SDS011;11110;52.386;16.940;2024-01-16T07:02:02;33.57;;;7.30;;
21890;SDS011;11110;52.386;16.940;2024-01-16T07:04:31;34.77;;;7.23;;
21890;SDS011;11110;52.386;16.940;2024-01-16T07:06:59;27.67;;;6.57;;
21890;SDS011;11110;52.386;16.940;2024-01-16T07:09:29;27.40;;;6.43;;
21890;SDS011;11110;52.386;16.940;2024-01-16T07:11:57;26.97;;;6.47;;
21890;SDS011;11110;52.386;16.940;2024-01-16T07:14:26;33.47;;;7.37;;
21890;SDS011;11110;52.386;16.940;2024-01-16T07:16:54;41.17;;;8.50;;
21890;SDS011;11110;52.386;16.940;2024-01-16T07:19:24;28.80;;;6.73;;
21890;SDS011;11110;52.386;16.940;2024-01-16T07:21:53;28.73;;;7.77;;
21890;SDS011;11110;52.386;16.940;2024-01-16T07:24:21;40.87;;;9.13;;
21890;SDS011;11110;52.386;16.940;2024-01-16T07:26:50;36.90;;;9.30;;
21890;SDS011;11110;52.386;16.940;2024-01-16T07:29:21;33.17;;;8.93;;
21890;SDS011;11110;52.386;16.940;2024-01-16T07:31:49;34.00;;;9.20;;
21890;SDS011;11110;52.386;16.940;2024-01-16T07:34:19;32.70;;;8.57;;
21890;SDS011;11110;52.386;16.940;2024-01-16T07:36:50;36.57;;;9.10;;
21890;SDS011;11110;52.386;16.940;2024-01-16T07:39:19;32.70;;;8.40;;
21890;SDS011;11110;52.386;16.940;2024-01-16T07:41:49;35.77;;;9.27;;
21890;SDS011;11110;52.386;16.940;2024-01-16T07:44:18;25.90;;;7.80;;
21890;SDS011;11110;52.386;16.940;2024-01-16T07:46:46;28.73;;;7.20;;
21890;SDS011;11110;52.386;16.940;2024-01-16T07:49:15;25.57;;;6.20;;
21890;SDS011;11110;52.386;16.940;2024-01-16T07:51:44;25.70;;;6.50;;
21890;SDS011;11110;52.386;16.940;2024-01-16T07:54:14;21.73;;;5.20;;
21890;SDS011;11110;52.386;16.940;2024-01-16T07:56:42;31.23;;;7.30;;
21890;SDS011;11110;52.386;16.940;2024-01-16T07:59:11;29.90;;;6.50;;
21890;SDS011;11110;52.386;16.940;2024-01-16T08:01:40;26.80;;;6.10;;
21890;SDS011;11110;52.386;16.940;2024-01-16T08:04:09;29.77;;;6.50;;
21890;SDS011;11110;52.386;16.940;2024-01-16T08:06:38;23.40;;;5.80;;
21890;SDS011;11110;52.386;16.940;2024-01-16T08:09:06;27.30;;;6.13;;
21890;SDS011;11110;52.386;16.940;2024-01-16T08:11:36;25.20;;;5.57;;
21890;SDS011;11110;52.386;16.940;2024-01-16T08:14:06;32.13;;;6.93;;
21890;SDS011;11110;52.386;16.940;2024-01-16T08:16:35;23.07;;;5.60;;
21890;SDS011;11110;52.386;16.940;2024-01-16T08:19:03;22.47;;;5.37;;
21890;SDS011;11110;52.386;16.940;2024-01-16T08:21:32;27.80;;;6.43;;
21890;SDS011;11110;52.386;16.940;2024-01-16T08:24:00;22.80;;;4.87;;
21890;SDS011;11110;52.386;16.940;2024-01-16T08:26:29;25.30;;;6.30;;
21890;SDS011;11110;52.386;16.940;2024-01-16T08:28:59;29.30;;;6.33;;
21890;SDS011;11110;52.386;16.940;2024-01-16T08:31:27;28.43;;;6.07;;
21890;SDS011;11110;52.386;16.940;2024-01-16T08:33:56;24.27;;;5.67;;
21890;SDS011;11110;52.386;16.940;2024-01-16T08:36:24;31.40;;;6.83;;
21890;SDS011;11110;52.386;16.940;2024-01-16T08:38:53;25.83;;;5.87;;
21890;SDS011;11110;52.386;16.940;2024-01-16T08:41:22;19.63;;;4.73;;
21890;SDS011;11110;52.386;16.940;2024-01-16T08:43:51;31.10;;;6.37;;
21890;SDS011;11110;52.386;16.940;2024-01-16T08:46:22;25.40;;;6.10;;
21890;SDS011;11110;52.386;16.940;2024-01-16T08:48:50;24.80;;;5.93;;
21890;SDS011;11110;52.386;16.940;2024-01-16T08:51:19;26.50;;;5.83;;
21890;SDS011;11110;52.386;16.940;2024-01-16T08:53:48;21.70;;;4.57;;
21890;SDS011;11110;52.386;16.940;2024-01-16T08:56:16;32.27;;;6.47;;
21890;SDS011;11110;52.386;16.940;2024-01-16T08:58:45;33.37;;;6.93;;
21890;SDS011;11110;52.386;16.940;2024-01-16T09:01:13;32.90;;;6.40;;
21890;SDS011;11110;52.386;16.940;2024-01-16T09:03:43;30.60;;;6.57;;
21890;SDS011;11110;52.386;16.940;2024-01-16T09:06:12;27.67;;;6.17;;
21890;SDS011;11110;52.386;16.940;2024-01-16T09:08:41;21.43;;;5.17;;
21890;SDS011;11110;52.386;16.940;2024-01-16T09:11:11;25.87;;;6.07;;
21890;SDS011;11110;52.386;16.940;2024-01-16T09:13:40;29.90;;;5.83;;
21890;SDS011;11110;52.386;16.940;2024-01-16T09:16:08;32.43;;;6.93;;
21890;SDS011;11110;52.386;16.940;2024-01-16T09:18:36;34.13;;;6.70;;
21890;SDS011;11110;52.386;16.940;2024-01-16T09:21:06;32.23;;;6.33;;
21890;SDS011;11110;52.386;16.940;2024-01-16T09:23:35;32.00;;;6.47;;
21890;SDS011;11110;52.386;16.940;2024-01-16T09:26:03;27.00;;;5.57;;
21890;SDS011;11110;52.386;16.940;2024-01-16T09:28:32;19.93;;;4.60;;
21890;SDS011;11110;52.386;16.940;2024-01-16T09:31:01;26.27;;;5.43;;
21890;SDS011;11110;52.386;16.940;2024-01-16T09:33:30;30.10;;;5.73;;
21890;SDS011;11110;52.386;16.940;2024-01-16T09:35:59;29.33;;;5.67;;
21890;SDS011;11110;52.386;16.940;2024-01-16T09:38:29;24.47;;;5.33;;
21890;SDS011;11110;52.386;16.940;2024-01-16T09:40:57;27.80;;;5.97;;
21890;SDS011;11110;52.386;16.940;2024-01-16T09:43:26;21.60;;;4.87;;
21890;SDS011;11110;52.386;16.940;2024-01-16T09:45:55;31.13;;;5.97;;
21890;SDS011;11110;52.386;16.940;2024-01-16T09:48:29;29.23;;;6.13;;
21890;SDS011;11110;52.386;16.940;2024-01-16T09:50:59;30.30;;;6.07;;
21890;SDS011;11110;52.386;16.940;2024-01-16T09:53:29;27.97;;;5.97;;
21890;SDS011;11110;52.386;16.940;2024-01-16T09:55:58;28.70;;;6.03;;
21890;SDS011;11110;52.386;16.940;2024-01-16T09:58:32;25.40;;;5.67;;
21890;SDS011;11110;52.386;16.940;2024-01-16T10:01:04;32.70;;;7.00;;
21890;SDS011;11110;52.386;16.940;2024-01-16T10:03:33;34.83;;;7.30;;
21890;SDS011;11110;52.386;16.940;2024-01-16T10:06:03;26.43;;;6.23;;
21890;SDS011;11110;52.386;16.940;2024-01-16T10:08:35;30.97;;;6.50;;
21890;SDS011;11110;52.386;16.940;2024-01-16T10:11:04;32.43;;;6.67;;
21890;SDS011;11110;52.386;16.940;2024-01-16T10:13:33;26.03;;;5.97;;
21890;SDS011;11110;52.386;16.940;2024-01-16T10:16:02;28.47;;;6.20;;
21890;SDS011;11110;52.386;16.940;2024-01-16T10:18:32;27.93;;;5.63;;
21890;SDS011;11110;52.386;16.940;2024-01-16T10:21:01;22.73;;;5.17;;
21890;SDS011;11110;52.386;16.940;2024-01-16T10:23:31;34.83;;;7.77;;
21890;SDS011;11110;52.386;16.940;2024-01-16T10:26:08;31.43;;;6.63;;
21890;SDS011;11110;52.386;16.940;2024-01-16T10:28:38;32.57;;;6.90;;
21890;SDS011;11110;52.386;16.940;2024-01-16T10:31:08;31.93;;;6.97;;
21890;SDS011;11110;52.386;16.940;2024-01-16T10:33:38;28.57;;;6.37;;
21890;SDS011;11110;52.386;16.940;2024-01-16T10:36:08;30.93;;;5.90;;
21890;SDS011;11110;52.386;16.940;2024-01-16T10:38:38;18.83;;;4.43;;
21890;SDS011;11110;52.386;16.940;2024-01-16T10:41:10;33.60;;;7.23;;
21890;SDS011;11110;52.386;16.940;2024-01-16T10:43:40;28.10;;;6.10;;
21890;SDS011;11110;52.386;16.940;2024-01-16T10:46:11;26.27;;;6.03;;
21890;SDS011;11110;52.386;16.940;2024-01-16T10:48:42;22.20;;;5.80;;
21890;SDS011;11110;52.386;16.940;2024-01-16T10:51:14;32.10;;;6.43;;
21890;SDS011;11110;52.386;16.940;2024-01-16T10:53:43;26.40;;;5.90;;
21890;SDS011;11110;52.386;16.940;2024-01-16T10:56:15;26.47;;;5.73;;
21890;SDS011;11110;52.386;16.940;2024-01-16T10:58:47;35.57;;;7.10;;
21890;SDS011;11110;52.386;16.940;2024-01-16T11:01:23;25.07;;;6.00;;
21890;SDS011;11110;52.386;16.940;2024-01-16T11:03:53;25.77;;;6.03;;
21890;SDS011;11110;52.386;16.940;2024-01-16T11:06:24;26.93;;;5.87;;
21890;SDS011;11110;52.386;16.940;2024-01-16T11:08:54;35.53;;;6.93;;
21890;SDS011;11110;52.386;16.940;2024-01-16T11:11:26;27.10;;;5.73;;
21890;SDS011;11110;52.386;16.940;2024-01-16T11:13:56;26.50;;;5.60;;
21890;SDS011;11110;52.386;16.940;2024-01-16T11:16:26;32.93;;;6.33;;
21890;SDS011;11110;52.386;16.940;2024-01-16T11:18:56;20.67;;;4.40;;
21890;SDS011;11110;52.386;16.940;2024-01-16T11:21:45;24.30;;;5.40;;
21890;SDS011;11110;52.386;16.940;2024-01-16T11:24:15;20.97;;;4.57;;
21890;SDS011;11110;52.386;16.940;2024-01-16T11:26:44;23.90;;;4.93;;
21890;SDS011;11110;52.386;16.940;2024-01-16T11:32:07;25.90;;;5.30;;
21890;SDS011;11110;52.386;16.940;2024-01-16T11:34:53;28.47;;;5.67;;
21890;SDS011;11110;52.386;16.940;2024-01-16T11:37:26;27.77;;;5.67;;
21890;SDS011;11110;52.386;16.940;2024-01-16T11:40:20;19.97;;;4.50;;
21890;SDS011;11110;52.386;16.940;2024-01-16T11:42:51;22.03;;;4.87;;
21890;SDS011;11110;52.386;16.940;2024-01-16T11:48:19;28.13;;;5.60;;
21890;SDS011;11110;52.386;16.940;2024-01-16T11:50:48;23.00;;;5.07;;
21890;SDS011;11110;52.386;16.940;2024-01-16T11:53:32;28.07;;;5.53;;
21890;SDS011;11110;52.386;16.940;2024-01-16T11:56:13;37.53;;;7.20;;
21890;SDS011;11110;52.386;16.940;2024-01-16T11:59:18;30.27;;;6.47;;
21890;SDS011;11110;52.386;16.940;2024-01-16T12:02:12;15.33;;;4.37;;
21890;SDS011;11110;52.386;16.940;2024-01-16T12:04:51;28.20;;;6.13;;
21890;SDS011;11110;52.386;16.940;2024-01-16T12:07:22;29.00;;;6.17;;
21890;SDS011;11110;52.386;16.940;2024-01-16T12:09:50;25.87;;;5.50;;
21890;SDS011;11110;52.386;16.940;2024-01-16T12:12:19;32.03;;;6.67;;
21890;SDS011;11110;52.386;16.940;2024-01-16T12:14:52;34.67;;;6.97;;
21890;SDS011;11110;52.386;16.940;2024-01-16T12:17:21;28.10;;;6.70;;
21890;SDS011;11110;52.386;16.940;2024-01-16T12:19:50;29.20;;;6.47;;
21890;SDS011;11110;52.386;16.940;2024-01-16T12:22:19;26.83;;;5.57;;
21890;SDS011;11110;52.386;16.940;2024-01-16T12:24:49;29.77;;;6.40;;
21890;SDS011;11110;52.386;16.940;2024-01-16T12:27:18;35.07;;;6.77;;
21890;SDS011;11110;52.386;16.940;2024-01-16T12:29:46;27.13;;;6.37;;
21890;SDS011;11110;52.386;16.940;2024-01-16T12:32:20;25.67;;;5.77;;
21890;SDS011;11110;52.386;16.940;2024-01-16T12:34:49;37.07;;;7.43;;
21890;SDS011;11110;52.386;16.940;2024-01-16T12:37:18;39.03;;;7.43;;
21890;SDS011;11110;52.386;16.940;2024-01-16T12:39:46;33.00;;;6.93;;
21890;SDS011;11110;52.386;16.940;2024-01-16T12:42:17;38.03;;;7.53;;
21890;SDS011;11110;52.386;16.940;2024-01-16T12:44:46;33.20;;;6.77;;
21890;SDS011;11110;52.386;16.940;2024-01-16T12:47:16;29.23;;;6.57;;
21890;SDS011;11110;52.386;16.940;2024-01-16T12:49:47;30.10;;;6.30;;
21890;SDS011;11110;52.386;16.940;2024-01-16T12:52:17;30.37;;;7.17;;
21890;SDS011;11110;52.386;16.940;2024-01-16T12:54:47;30.00;;;6.63;;
21890;SDS011;11110;52.386;16.940;2024-01-16T12:57:17;28.53;;;7.00;;
21890;SDS011;11110;52.386;16.940;2024-01-16T12:59:47;30.33;;;6.50;;
21890;SDS011;11110;52.386;16.940;2024-01-16T13:02:20;27.13;;;6.23;;
21890;SDS011;11110;52.386;16.940;2024-01-16T13:04:58;32.97;;;6.43;;
21890;SDS011;11110;52.386;16.940;2024-01-16T13:07:30;23.10;;;5.57;;
21890;SDS011;11110;52.386;16.940;2024-01-16T13:10:07;21.70;;;5.07;;
21890;SDS011;11110;52.386;16.940;2024-01-16T13:12:38;21.60;;;5.20;;
21890;SDS011;11110;52.386;16.940;2024-01-16T13:15:07;24.77;;;6.23;;
21890;SDS011;11110;52.386;16.940;2024-01-16T13:17:38;30.37;;;6.00;;
21890;SDS011;11110;52.386;16.940;2024-01-16T13:20:08;27.20;;;6.20;;
21890;SDS011;11110;52.386;16.940;2024-01-16T13:22:40;32.00;;;6.63;;
21890;SDS011;11110;52.386;16.940;2024-01-16T13:25:13;30.10;;;6.93;;
21890;SDS011;11110;52.386;16.940;2024-01-16T13:27:42;33.63;;;8.53;;
21890;SDS011;11110;52.386;16.940;2024-01-16T13:30:11;31.07;;;7.80;;
21890;SDS011;11110;52.386;16.940;2024-01-16T13:32:41;30.67;;;8.70;;
21890;SDS011;11110;52.386;16.940;2024-01-16T13:35:11;31.57;;;8.40;;
21890;SDS011;11110;52.386;16.940;2024-01-16T13:37:40;32.53;;;8.73;;
21890;SDS011;11110;52.386;16.940;2024-01-16T13:40:09;40.73;;;9.33;;
21890;SDS011;11110;52.386;16.940;2024-01-16T13:42:42;34.33;;;8.63;;
21890;SDS011;11110;52.386;16.940;2024-01-16T13:45:10;28.97;;;8.37;;
21890;SDS011;11110;52.386;16.940;2024-01-16T13:47:40;23.73;;;7.43;;
21890;SDS011;11110;52.386;16.940;2024-01-16T13:50:09;27.33;;;7.47;;
21890;SDS011;11110;52.386;16.940;2024-01-16T13:52:39;38.83;;;8.97;;
21890;SDS011;11110;52.386;16.940;2024-01-16T13:55:08;40.93;;;9.23;;
21890;SDS011;11110;52.386;16.940;2024-01-16T13:57:36;30.00;;;7.83;;
21890;SDS011;11110;52.386;16.940;2024-01-16T14:00:06;40.60;;;9.97;;
21890;SDS011;11110;52.386;16.940;2024-01-16T14:02:40;31.83;;;8.47;;
21890;SDS011;11110;52.386;16.940;2024-01-16T14:05:09;28.37;;;8.27;;
21890;SDS011;11110;52.386;16.940;2024-01-16T14:07:40;32.83;;;8.70;;
21890;SDS011;11110;52.386;16.940;2024-01-16T14:10:08;37.73;;;9.60;;
21890;SDS011;11110;52.386;16.940;2024-01-16T14:12:39;33.07;;;8.27;;
21890;SDS011;11110;52.386;16.940;2024-01-16T14:15:09;34.53;;;8.27;;
21890;SDS011;11110;52.386;16.940;2024-01-16T14:17:46;35.70;;;8.40;;
21890;SDS011;11110;52.386;16.940;2024-01-16T14:20:15;35.20;;;8.57;;
21890;SDS011;11110;52.386;16.940;2024-01-16T14:22:52;28.70;;;7.57;;
21890;SDS011;11110;52.386;16.940;2024-01-16T14:25:21;28.17;;;7.80;;
21890;SDS011;11110;52.386;16.940;2024-01-16T14:27:55;31.37;;;8.07;;
21890;SDS011;11110;52.386;16.940;2024-01-16T14:30:25;36.10;;;9.00;;
21890;SDS011;11110;52.386;16.940;2024-01-16T14:32:54;29.53;;;7.83;;
21890;SDS011;11110;52.386;16.940;2024-01-16T14:35:23;26.70;;;7.60;;
21890;SDS011;11110;52.386;16.940;2024-01-16T14:37:54;31.67;;;8.47;;
21890;SDS011;11110;52.386;16.940;2024-01-16T14:40:22;34.30;;;9.20;;
21890;SDS011;11110;52.386;16.940;2024-01-16T14:42:53;36.00;;;9.17;;